Longworth, Texas
Current Conditions -  °F | °C
As of 7:15 PM on Friday 31 Oct 2014 (Local Time) from KSWW Reporting Station
Clear Clear  
Wind Chill: 57°   Ceiling: Unl
Heat Index: 57°   Visibility: 10mi
Dew Point: 31°   Wind: 6mph
Humidity: 37%   Direction: 30°NNE
Pressure: 30.37"   Gusts: NA
Location:  32.6787°N, 100.492°W
Report Text: KSWW 010015Z AUTO 03005KT 10SM CLR 14/00 A3037 RMK AO2 T01411004
Loading
Personal Weather Stations






























Interactive Weather Map
Tropical Storm Tracking
New forecast layout! Learn more

10-Day Weather Forecast

Advertisements
Track Severe Weather on mobile